CheckWX is a tool to help pilots better visualize weather data.  It is not intended as a substitute for an official pre-flight weather briefing.

14:26:52 UTC

KCPR TAF
Casper / Natrona County International Airport
Casper, Wyoming, USA
KCPR 261120Z 2612/2712 23012G18KT P6SM SCT100 FM261700 22014G24KT P6SM FEW110 FM270000 22010KT P6SM SCT110 BKN200 FM271100 23007KT P6SM BKN100

Jan-26@
12:00 UTC

Jan-26 @ 12:00 UTC

Jan-26@
17:00 UTC

Jan-26 @ 17:00 UTC

KCPR 261120Z 2612/2712 23012G18KT P6SM SCT100
Wind
  • 230° at 12 KTS
  • {Gusting to 18 KTS
Cloud Levels
  • Scattered at 10,000' AGL

Jan-26@
17:00 UTC

Jan-26 @ 17:00 UTC

Jan-27@
00:00 UTC

Jan-27 @ 00:00 UTC

FM261700 22014G24KT P6SM FEW110

From

From Standard forecast or significant change

Wind
  • 220° at 14 KTS
  • {Gusting to 24 KTS
Cloud Levels
  • Few at 11,000' AGL

Jan-27@
00:00 UTC

Jan-27 @ 00:00 UTC

Jan-27@
11:00 UTC

Jan-27 @ 11:00 UTC

FM270000 22010KT P6SM SCT110 BKN200

From

From Standard forecast or significant change

Wind
  • 220° at 10 KTS
Cloud Levels
  • Scattered at 11,000' AGL
  • Broken at 20,000' AGL

Jan-27@
11:00 UTC

Jan-27 @ 11:00 UTC

Jan-27@
12:00 UTC

Jan-27 @ 12:00 UTC

FM271100 23007KT P6SM BKN100

From

From Standard forecast or significant change

Wind
  • 230° at 7 KTS
Cloud Levels
  • Broken at 10,000' AGL